Time;durP1;ratioP1;P1;durP2;ratioP2;P2;SDS_P1;SDS_P2;PMS_P1;PMS_P2;Temp;Humidity;BMP_temperature;BMP_pressure;BME280_temperature;BME280_humidity;BME280_pressure;Samples;Min_cycle;Max_cycle;Signal;HPM_P1;HPM_P2
2023/07/03 00:01:04;;;;;;;10.30;5.43;;;23.00;63.30;;;;;;10063623;28;20136;-66
2023/07/03 00:05:54;;;;;;;12.35;5.07;;;22.90;63.40;;;;;;10067526;28;20029;-66
2023/07/03 00:10:45;;;;;;;12.98;6.28;;;22.80;63.80;;;;;;10062001;28;20048;-67
2023/07/03 00:15:36;;;;;;;12.30;5.65;;;22.90;63.80;;;;;;10062458;28;20056;-65
2023/07/03 00:20:27;;;;;;;14.02;5.82;;;22.80;63.80;;;;;;10071507;28;20572;-66
2023/07/03 00:25:18;;;;;;;10.07;5.78;;;22.80;64.20;;;;;;10066770;28;20407;-65
2023/07/03 00:30:10;;;;;;;11.63;5.80;;;22.70;64.50;;;;;;10062156;28;20048;-67
2023/07/03 00:35:00;;;;;;;10.57;5.43;;;22.70;64.60;;;;;;10097029;28;20495;-67
2023/07/03 00:39:51;;;;;;;12.18;6.18;;;22.60;64.90;;;;;;10076736;28;20026;-66
2023/07/03 00:44:42;;;;;;;11.95;5.90;;;22.60;65.20;;;;;;10090146;28;20403;-66
2023/07/03 00:49:32;;;;;;;13.52;5.88;;;22.40;65.60;;;;;;10063026;28;20017;-66
2023/07/03 00:54:23;;;;;;;13.00;5.82;;;22.40;65.90;;;;;;10074491;28;20119;-67
2023/07/03 00:59:15;;;;;;;11.02;6.13;;;22.30;66.20;;;;;;10064195;28;20594;-67
2023/07/03 01:04:20;;;;;;;11.50;5.78;;;22.40;66.50;;;;;;10068809;28;20094;-66
2023/07/03 01:09:13;;;;;;;13.10;5.38;;;22.30;66.70;;;;;;10073358;28;20032;-67
2023/07/03 01:14:07;;;;;;;14.00;5.55;;;22.20;66.80;;;;;;10062112;28;20044;-64
2023/07/03 01:18:59;;;;;;;10.40;5.20;;;22.20;67.10;;;;;;10052769;28;20475;-65
2023/07/03 01:23:57;;;;;;;9.52;4.90;;;22.20;67.30;;;;;;10059246;28;20396;-65
2023/07/03 01:28:54;;;;;;;14.70;5.97;;;22.20;67.60;;;;;;10062566;28;20071;-66
2023/07/03 01:33:45;;;;;;;12.50;5.47;;;22.20;67.80;;;;;;10074032;28;20061;-65
2023/07/03 01:38:35;;;;;;;10.93;5.63;;;22.30;67.80;;;;;;10054360;28;20041;-65
2023/07/03 01:43:27;;;;;;;11.65;6.30;;;22.40;68.00;;;;;;10070972;28;20037;-65
2023/07/03 01:48:18;;;;;;;14.65;5.25;;;22.30;68.00;;;;;;10061022;28;20068;-65
2023/07/03 01:53:24;;;;;;;13.43;5.93;;;22.10;68.60;;;;;;10060414;28;20033;-66
2023/07/03 01:58:23;;;;;;;10.27;5.05;;;22.10;68.90;;;;;;10059448;28;20053;-66
2023/07/03 02:03:24;;;;;;;11.20;4.95;;;22.10;68.90;;;;;;10063463;28;20546;-66
2023/07/03 02:08:16;;;;;;;10.85;5.75;;;22.10;69.00;;;;;;10075679;28;20033;-67
2023/07/03 02:13:07;;;;;;;8.32;4.90;;;22.00;69.30;;;;;;10069588;28;20373;-67
2023/07/03 02:17:58;;;;;;;9.63;4.82;;;22.00;69.50;;;;;;10066018;28;20037;-67
2023/07/03 02:22:49;;;;;;;11.35;5.90;;;21.90;69.50;;;;;;10054061;28;20053;-65
2023/07/03 02:27:43;;;;;;;14.93;6.35;;;21.90;69.60;;;;;;10057871;28;20029;-67
2023/07/03 02:32:37;;;;;;;13.07;5.47;;;21.80;70.00;;;;;;10074685;28;20608;-66
2023/07/03 02:37:28;;;;;;;11.68;4.75;;;21.80;70.20;;;;;;10075902;28;20049;-66
2023/07/03 02:42:19;;;;;;;11.88;5.45;;;21.90;70.20;;;;;;10069168;28;20133;-65
2023/07/03 02:47:09;;;;;;;11.05;5.38;;;22.00;70.10;;;;;;10060554;28;20137;-65
2023/07/03 02:52:00;;;;;;;11.65;5.75;;;22.00;70.40;;;;;;10064825;28;20027;-66
2023/07/03 02:56:50;;;;;;;13.43;5.45;;;22.00;70.40;;;;;;10057569;28;20517;-65
2023/07/03 03:01:41;;;;;;;11.27;4.82;;;22.00;70.50;;;;;;10061089;28;20022;-68
2023/07/03 03:06:33;;;;;;;10.48;5.15;;;22.00;70.70;;;;;;10052134;28;20040;-66
2023/07/03 03:11:24;;;;;;;11.50;4.63;;;22.00;70.90;;;;;;10056810;28;20018;-65
2023/07/03 03:16:16;;;;;;;15.20;5.10;;;21.90;71.00;;;;;;10055794;28;20037;-65
2023/07/03 03:21:06;;;;;;;9.88;5.00;;;21.70;71.40;;;;;;10061679;28;20516;-65
2023/07/03 03:25:57;;;;;;;8.82;5.53;;;21.70;71.50;;;;;;10058898;28;20064;-65
2023/07/03 03:30:47;;;;;;;11.85;5.68;;;21.80;71.50;;;;;;10069973;28;20071;-65
2023/07/03 03:35:38;;;;;;;11.95;5.95;;;21.60;71.70;;;;;;10081671;28;20124;-65
2023/07/03 03:40:28;;;;;;;12.18;5.63;;;21.50;72.00;;;;;;10078287;28;20025;-64
2023/07/03 03:45:19;;;;;;;15.25;5.47;;;21.50;72.10;;;;;;10065598;28;20033;-65
2023/07/03 03:50:10;;;;;;;11.02;4.75;;;21.50;72.30;;;;;;10061382;28;20060;-63
2023/07/03 03:55:01;;;;;;;12.85;5.75;;;21.50;72.30;;;;;;10051679;28;20037;-64
2023/07/03 03:59:51;;;;;;;12.02;5.43;;;21.50;72.60;;;;;;10056592;28;20511;-66
2023/07/03 04:04:42;;;;;;;9.07;4.97;;;21.50;72.90;;;;;;10050139;28;20492;-65
2023/07/03 04:09:32;;;;;;;11.90;4.90;;;21.30;73.30;;;;;;10052841;28;20038;-65
2023/07/03 04:14:23;;;;;;;9.82;5.63;;;21.20;73.60;;;;;;10069633;28;20048;-66
2023/07/03 04:19:18;;;;;;;11.00;5.30;;;21.30;73.60;;;;;;10071504;28;20025;-66
2023/07/03 04:24:08;;;;;;;16.10;5.72;;;21.40;73.80;;;;;;10063614;28;20439;-66
2023/07/03 04:28:59;;;;;;;14.80;5.78;;;21.40;73.90;;;;;;10059929;28;20095;-65
2023/07/03 04:33:50;;;;;;;11.45;6.35;;;21.20;74.30;;;;;;10092016;28;20053;-66
2023/07/03 04:38:41;;;;;;;9.15;5.13;;;21.10;74.60;;;;;;10087071;28;20388;-64
2023/07/03 04:43:32;;;;;;;8.82;4.43;;;21.00;75.00;;;;;;10080073;28;20060;-66
2023/07/03 04:48:23;;;;;;;8.68;4.68;;;21.00;75.10;;;;;;10064710;28;20453;-66
2023/07/03 04:53:13;;;;;;;14.88;4.78;;;21.00;75.50;;;;;;10065019;28;20032;-67
2023/07/03 04:58:05;;;;;;;6.35;4.20;;;21.00;75.90;;;;;;10065363;28;20123;-65
2023/07/03 05:03:00;;;;;;;10.85;5.38;;;20.90;76.00;;;;;;10067115;28;20039;-66
2023/07/03 05:07:51;;;;;;;13.02;5.75;;;20.80;76.50;;;;;;10061552;28;20034;-67
2023/07/03 05:12:42;;;;;;;7.82;5.13;;;20.60;76.90;;;;;;10067137;28;20029;-65
2023/07/03 05:17:34;;;;;;;9.95;5.45;;;20.60;77.30;;;;;;10064764;28;20080;-66
2023/07/03 05:22:25;;;;;;;11.20;5.10;;;20.70;77.30;;;;;;10058993;28;20033;-66
2023/07/03 05:27:16;;;;;;;8.88;5.13;;;20.70;77.30;;;;;;10069462;28;20033;-64
2023/07/03 05:32:07;;;;;;;13.50;5.47;;;20.70;77.30;;;;;;10081109;28;20515;-66
2023/07/03 05:36:58;;;;;;;11.45;5.78;;;21.00;77.70;;;;;;10074759;28;20045;-66
2023/07/03 05:41:49;;;;;;;12.05;6.25;;;21.00;77.60;;;;;;10082598;28;20013;-66
2023/07/03 05:46:39;;;;;;;9.50;4.65;;;21.00;77.90;;;;;;10076783;28;20037;-65
2023/07/03 05:51:30;;;;;;;9.20;5.38;;;21.10;78.00;;;;;;10068082;28;20044;-66
2023/07/03 05:56:21;;;;;;;13.25;5.55;;;21.00;78.50;;;;;;10059839;28;20037;-66
2023/07/03 06:01:11;;;;;;;12.93;5.45;;;21.10;78.20;;;;;;10058921;28;20255;-67
2023/07/03 06:06:04;;;;;;;10.50;4.95;;;21.30;78.00;;;;;;10059624;28;20554;-66
2023/07/03 06:10:55;;;;;;;12.25;4.75;;;21.30;78.50;;;;;;10062147;28;20041;-65
2023/07/03 06:15:45;;;;;;;13.75;6.07;;;21.40;78.40;;;;;;10067776;28;20140;-66
2023/07/03 06:20:37;;;;;;;15.90;6.15;;;21.50;78.50;;;;;;10063534;28;20029;-64
2023/07/03 06:25:28;;;;;;;12.63;4.72;;;21.40;78.60;;;;;;10059150;28;20495;-66
2023/07/03 06:30:19;;;;;;;9.82;5.28;;;21.50;78.60;;;;;;10059166;28;20131;-64
2023/07/03 06:35:09;;;;;;;9.40;4.35;;;21.50;78.60;;;;;;10067062;28;20033;-63
2023/07/03 06:40:00;;;;;;;10.95;4.00;;;21.50;78.60;;;;;;10073680;28;20518;-65
2023/07/03 06:44:51;;;;;;;9.05;4.18;;;21.60;78.10;;;;;;10069174;28;20510;-64
2023/07/03 06:49:41;;;;;;;10.70;3.63;;;21.40;77.90;;;;;;10069189;28;20032;-64
2023/07/03 06:54:32;;;;;;;7.18;3.67;;;21.40;77.80;;;;;;10057339;28;20043;-64
2023/07/03 06:59:23;;;;;;;10.85;3.72;;;21.30;77.60;;;;;;10059031;28;20057;-64
2023/07/03 07:04:14;;;;;;;9.68;3.50;;;21.50;77.30;;;;;;10063155;28;20116;-66
2023/07/03 07:09:05;;;;;;;8.57;3.60;;;21.60;76.90;;;;;;10048075;28;20060;-63
2023/07/03 07:13:57;;;;;;;10.18;4.03;;;21.70;76.70;;;;;;10057409;28;20369;-66
2023/07/03 07:18:52;;;;;;;12.23;3.78;;;21.80;76.40;;;;;;10068052;28;20037;-64
2023/07/03 07:23:42;;;;;;;10.88;4.00;;;21.90;76.20;;;;;;10059542;28;20014;-65
2023/07/03 07:28:33;;;;;;;10.57;4.32;;;22.00;76.00;;;;;;10053972;28;20495;-61
2023/07/03 07:33:24;;;;;;;6.97;3.63;;;22.40;75.60;;;;;;10063959;28;20523;-64
2023/07/03 07:38:14;;;;;;;7.07;3.65;;;22.50;75.40;;;;;;10072840;28;20075;-64
2023/07/03 07:43:06;;;;;;;8.90;4.57;;;22.60;75.30;;;;;;10074675;28;20040;-63
2023/07/03 07:47:56;;;;;;;6.75;3.65;;;22.70;74.90;;;;;;10051122;28;20505;-64
2023/07/03 07:52:47;;;;;;;12.80;4.32;;;22.90;75.00;;;;;;10072462;28;20163;-64
2023/07/03 07:57:38;;;;;;;11.15;4.97;;;23.10;74.70;;;;;;10068843;28;20533;-65
2023/07/03 08:02:28;;;;;;;9.30;4.70;;;23.20;74.70;;;;;;10059644;28;20082;-66
2023/07/03 08:07:19;;;;;;;10.85;4.53;;;23.00;74.80;;;;;;10082531;28;20034;-63
2023/07/03 08:12:09;;;;;;;12.15;4.30;;;23.00;74.90;;;;;;10079705;28;20049;-67
2023/07/03 08:17:01;;;;;;;11.68;5.50;;;23.30;74.70;;;;;;10074647;28;20122;-64
2023/07/03 08:21:51;;;;;;;12.93;5.10;;;23.50;74.50;;;;;;10066554;28;20029;-66
2023/07/03 08:26:45;;;;;;;8.57;4.05;;;23.60;74.60;;;;;;10069260;28;20036;-62
2023/07/03 08:31:36;;;;;;;10.17;4.37;;;23.50;74.60;;;;;;10068737;28;20045;-64
2023/07/03 08:36:26;;;;;;;9.65;4.40;;;23.40;74.70;;;;;;10082439;28;20045;-65
2023/07/03 08:41:18;;;;;;;10.40;4.97;;;23.40;74.40;;;;;;10076587;28;20028;-65
2023/07/03 08:46:16;;;;;;;12.65;5.35;;;23.50;74.40;;;;;;10079677;28;20037;-64
2023/07/03 08:51:14;;;;;;;9.30;3.90;;;23.70;74.10;;;;;;10073940;28;20033;-68
2023/07/03 08:56:25;;;;;;;6.80;3.95;;;23.70;74.30;;;;;;10051298;28;20128;-65
2023/07/03 09:01:30;;;;;;;9.70;4.30;;;23.70;73.90;;;;;;10054297;28;20416;-65
2023/07/03 09:06:31;;;;;;;10.68;4.25;;;23.50;74.20;;;;;;10079995;28;20040;-73
2023/07/03 09:11:24;;;;;;;8.80;3.70;;;23.50;74.10;;;;;;10055921;28;20021;-69
2023/07/03 09:16:22;;;;;;;10.20;4.15;;;23.20;74.30;;;;;;10068252;28;20033;-65
2023/07/03 09:21:12;;;;;;;6.38;2.80;;;22.80;74.60;;;;;;10036368;28;20025;-63
2023/07/03 09:26:18;;;;;;;7.38;2.90;;;22.60;74.80;;;;;;10060351;28;20030;-64
2023/07/03 09:31:09;;;;;;;7.55;2.38;;;22.60;74.70;;;;;;10031604;28;20235;-67
2023/07/03 09:36:29;;;;;;;10.10;2.90;;;22.70;74.60;;;;;;10062996;28;20222;-66
2023/07/03 09:41:27;;;;;;;5.38;2.53;;;23.20;74.20;;;;;;10055441;28;20076;-68
2023/07/03 09:46:20;;;;;;;5.72;2.63;;;23.20;74.00;;;;;;10065339;28;20037;-66
2023/07/03 09:51:22;;;;;;;4.38;2.42;;;23.30;74.00;;;;;;10075360;28;20030;-67
2023/07/03 09:56:17;;;;;;;8.23;3.00;;;23.50;73.60;;;;;;10060227;28;20045;-67
2023/07/03 10:01:16;;;;;;;7.70;3.17;;;23.40;73.50;;;;;;10040998;28;20037;-68
2023/07/03 10:06:17;;;;;;;5.72;2.25;;;23.30;73.50;;;;;;10081914;28;20025;-69
2023/07/03 10:11:10;;;;;;;6.78;3.60;;;23.40;73.40;;;;;;10073712;28;20094;-67
2023/07/03 10:16:01;;;;;;;7.00;3.03;;;23.80;73.20;;;;;;10068693;28;20495;-66
2023/07/03 10:20:52;;;;;;;4.95;2.78;;;24.20;72.80;;;;;;10058177;28;20033;-63
2023/07/03 10:25:50;;;;;;;9.68;3.25;;;24.50;72.20;;;;;;10062482;28;20068;-66
2023/07/03 10:30:41;;;;;;;4.53;2.05;;;24.40;72.10;;;;;;10036890;28;20037;-66
2023/07/03 10:35:34;;;;;;;8.48;1.85;;;24.70;71.60;;;;;;10060252;28;20048;-65
2023/07/03 10:40:53;;;;;;;4.65;2.38;;;24.60;71.50;;;;;;10065737;28;20067;-67
2023/07/03 10:45:45;;;;;;;6.13;2.58;;;24.50;71.30;;;;;;10060712;28;20151;-65
2023/07/03 10:50:51;;;;;;;4.70;1.75;;;24.50;71.50;;;;;;10065207;28;20053;-66
2023/07/03 10:55:52;;;;;;;5.15;1.65;;;24.20;71.20;;;;;;10059222;28;20254;-65
2023/07/03 11:01:03;;;;;;;2.15;1.35;;;24.00;71.40;;;;;;10054461;28;20045;-63
2023/07/03 11:06:19;;;;;;;5.70;1.73;;;24.00;70.60;;;;;;10064056;28;20025;-67
2023/07/03 11:11:43;;;;;;;1.55;1.10;;;24.10;70.70;;;;;;10042396;28;20490;-65
2023/07/03 11:16:52;;;;;;;3.60;1.33;;;24.60;69.30;;;;;;10057732;28;20033;-65
2023/07/03 11:22:17;;;;;;;4.70;1.45;;;24.40;69.40;;;;;;10063172;28;20503;-66
2023/07/03 11:27:43;;;;;;;;;;;25.30;68.60;;;;;;10070037;28;20481;-66
2023/07/03 11:32:35;;;;;;;5.22;1.45;;;25.90;67.90;;;;;;9966288;28;19918;-66
2023/07/03 11:37:40;;;;;;;2.80;1.08;;;25.80;68.20;;;;;;10074812;28;20084;-65
2023/07/03 11:42:31;;;;;;;4.05;1.65;;;25.20;68.40;;;;;;10085231;28;20022;-66
2023/07/03 11:47:30;;;;;;;1.58;0.90;;;24.80;68.80;;;;;;10081396;28;20033;-65
2023/07/03 11:52:28;;;;;;;2.78;1.25;;;24.50;68.70;;;;;;10072802;28;20044;-66
2023/07/03 11:57:38;;;;;;;2.33;1.23;;;24.50;68.60;;;;;;10064035;28;20072;-65
2023/07/03 12:02:29;;;;;;;4.13;1.55;;;24.60;68.20;;;;;;10061677;28;20041;-67
2023/07/03 12:07:20;;;;;;;5.40;1.55;;;25.10;67.80;;;;;;10052728;28;20033;-66
2023/07/03 12:12:13;;;;;;;7.90;2.47;;;25.60;67.20;;;;;;10071157;28;20080;-63
2023/07/03 12:17:04;;;;;;;2.63;1.20;;;25.50;67.40;;;;;;10074124;28;20043;-68
2023/07/03 12:21:55;;;;;;;1.88;1.00;;;25.10;67.60;;;;;;10064939;28;20108;-64
2023/07/03 12:26:55;;;;;;;1.60;0.95;;;24.80;67.90;;;;;;10063593;28;20033;-65
2023/07/03 12:32:09;;;;;;;3.20;1.13;;;24.70;67.80;;;;;;10076508;28;20069;-66
2023/07/03 12:37:07;;;;;;;2.00;1.00;;;25.10;67.30;;;;;;10089039;28;20049;-63
2023/07/03 12:42:09;;;;;;;2.30;1.15;;;25.50;67.20;;;;;;10077024;28;20086;-63
2023/07/03 12:47:17;;;;;;;2.05;1.25;;;25.10;67.30;;;;;;10060733;28;20577;-66
2023/07/03 12:52:08;;;;;;;2.58;1.17;;;25.10;67.10;;;;;;10069203;28;20052;-65
2023/07/03 12:57:00;;;;;;;1.80;1.30;;;25.50;66.90;;;;;;10062790;28;20108;-64
2023/07/03 13:01:52;;;;;;;1.50;0.93;;;26.30;66.90;;;;;;10058841;28;20041;-64
2023/07/03 13:06:44;;;;;;;4.00;2.30;;;28.40;66.00;;;;;;10071936;28;20033;-64
2023/07/03 13:11:43;;;;;;;2.80;0.80;;;29.70;64.70;;;;;;10053876;28;20104;-67
2023/07/03 13:16:34;;;;;;;4.30;0.80;;;29.80;64.50;;;;;;10067071;28;20088;-63
2023/07/03 13:21:25;;;;;;;1.15;0.75;;;28.70;64.70;;;;;;10062529;28;20052;-64
2023/07/03 13:26:22;;;;;;;1.67;0.80;;;27.20;65.40;;;;;;10059906;28;20033;-67
2023/07/03 13:31:20;;;;;;;1.90;1.00;;;26.90;65.20;;;;;;10059605;28;20048;-65
2023/07/03 13:36:22;;;;;;;1.65;1.00;;;28.70;64.80;;;;;;10090044;28;20130;-64
2023/07/03 13:41:13;;;;;;;1.10;0.85;;;31.60;61.20;;;;;;10067902;28;20399;-66
2023/07/03 13:46:03;;;;;;;1.95;0.98;;;31.70;60.70;;;;;;10077249;28;20044;-64
2023/07/03 13:50:55;;;;;;;1.90;1.10;;;30.10;61.90;;;;;;10069294;28;20108;-65
2023/07/03 13:55:46;;;;;;;2.75;1.20;;;28.80;62.50;;;;;;10059599;28;20094;-66
2023/07/03 14:00:36;;;;;;;3.90;0.98;;;27.90;62.70;;;;;;10057348;28;20025;-65
2023/07/03 14:05:27;;;;;;;1.85;0.85;;;30.40;60.70;;;;;;10074819;28;20083;-71
2023/07/03 14:10:18;;;;;;;1.98;1.00;;;32.60;58.30;;;;;;10070027;28;20060;-72
2023/07/03 14:15:28;;;;;;;1.73;1.10;;;31.20;58.80;;;;;;10056334;28;20045;-72
2023/07/03 14:20:20;;;;;;;1.20;0.90;;;31.90;57.50;;;;;;10060813;28;20037;-70
2023/07/03 14:25:12;;;;;;;3.13;1.17;;;33.50;56.80;;;;;;10063331;28;20069;-71
2023/07/03 14:30:07;;;;;;;2.97;1.38;;;32.80;57.80;;;;;;10056239;28;20102;-68
2023/07/03 14:34:58;;;;;;;1.70;0.90;;;31.20;58.20;;;;;;10074366;28;20048;-68
2023/07/03 14:39:48;;;;;;;2.05;0.88;;;29.30;59.20;;;;;;10070755;28;20415;-68
2023/07/03 14:44:39;;;;;;;1.83;1.20;;;27.70;60.20;;;;;;10072920;28;20580;-68
2023/07/03 14:49:29;;;;;;;4.93;0.77;;;27.00;60.40;;;;;;10066982;28;20044;-71
2023/07/03 14:54:24;;;;;;;0.93;0.68;;;26.80;60.50;;;;;;10060456;28;20048;-70
2023/07/03 14:59:15;;;;;;;3.42;1.45;;;26.80;60.40;;;;;;10062959;28;20664;-66
2023/07/03 15:04:08;;;;;;;3.50;1.08;;;27.20;60.20;;;;;;10074046;28;20063;-65
2023/07/03 15:08:59;;;;;;;2.20;0.77;;;28.90;58.80;;;;;;10070242;28;20088;-67
2023/07/03 15:13:49;;;;;;;1.30;0.80;;;28.40;59.60;;;;;;10073004;28;20026;-70
2023/07/03 15:18:40;;;;;;;3.28;0.90;;;28.60;59.90;;;;;;10067864;28;20495;-71
2023/07/03 15:23:32;;;;;;;2.20;1.10;;;29.00;59.40;;;;;;10061819;28;20022;-69
2023/07/03 15:28:22;;;;;;;1.83;0.93;;;29.00;59.80;;;;;;10045408;28;20476;-69
2023/07/03 15:33:13;;;;;;;1.02;0.80;;;29.80;59.10;;;;;;10058534;28;20125;-69
2023/07/03 15:38:03;;;;;;;2.33;1.15;;;28.30;60.20;;;;;;10075104;28;20167;-68
2023/07/03 15:42:54;;;;;;;1.92;0.77;;;27.30;61.00;;;;;;10074024;28;20045;-66
2023/07/03 15:47:45;;;;;;;1.70;1.02;;;26.80;61.30;;;;;;10073741;28;20034;-68
2023/07/03 15:52:35;;;;;;;2.42;0.85;;;26.40;61.60;;;;;;10069033;28;20034;-67
2023/07/03 15:57:28;;;;;;;1.65;1.20;;;26.30;61.70;;;;;;10060499;28;20041;-67
2023/07/03 16:02:19;;;;;;;3.88;1.15;;;26.20;61.90;;;;;;10052307;28;20086;-68
2023/07/03 16:07:09;;;;;;;6.40;1.30;;;25.90;62.20;;;;;;10050183;28;20117;-71
2023/07/03 16:12:00;;;;;;;2.30;1.40;;;25.90;62.40;;;;;;10079695;28;20560;-71
2023/07/03 16:16:50;;;;;;;4.68;1.52;;;25.90;62.50;;;;;;10073032;28;20509;-70
2023/07/03 16:21:41;;;;;;;4.70;1.27;;;25.80;62.90;;;;;;10065841;28;20021;-68
2023/07/03 16:26:32;;;;;;;3.65;1.73;;;25.80;63.20;;;;;;10066229;28;20029;-67
2023/07/03 16:31:28;;;;;;;4.35;1.55;;;25.60;63.70;;;;;;10051043;28;20053;-69
2023/07/03 16:36:21;;;;;;;3.67;1.85;;;25.40;64.40;;;;;;10088572;28;20041;-72
2023/07/03 16:41:11;;;;;;;3.63;1.50;;;25.20;65.30;;;;;;10087353;28;20028;-71
2023/07/03 16:46:04;;;;;;;4.22;1.52;;;25.20;65.40;;;;;;10070058;28;20567;-71
2023/07/03 16:50:58;;;;;;;3.53;1.45;;;25.10;65.80;;;;;;10051133;28;20025;-69
2023/07/03 16:55:49;;;;;;;3.97;2.03;;;25.10;66.00;;;;;;10055750;28;20135;-71
2023/07/03 17:00:43;;;;;;;6.47;1.67;;;25.10;66.00;;;;;;10059308;28;20045;-69
2023/07/03 17:05:33;;;;;;;4.68;1.60;;;25.20;66.10;;;;;;10064330;28;20032;-66
2023/07/03 17:10:24;;;;;;;1.95;1.50;;;25.00;66.90;;;;;;10059686;28;20037;-68
2023/07/03 17:15:15;;;;;;;2.30;1.17;;;24.70;67.70;;;;;;10049984;28;20574;-70
2023/07/03 17:20:06;;;;;;;2.20;1.15;;;24.50;68.40;;;;;;10058674;28;20029;-70
2023/07/03 17:24:57;;;;;;;2.15;1.35;;;24.50;69.10;;;;;;10061949;28;20454;-67
2023/07/03 17:29:47;;;;;;;3.35;1.35;;;24.30;69.40;;;;;;10066654;28;20114;-71
2023/07/03 17:34:38;;;;;;;4.32;1.75;;;24.30;69.80;;;;;;10058200;28;20072;-68
2023/07/03 17:39:29;;;;;;;5.47;1.90;;;26.70;67.50;;;;;;10060718;28;20041;-68
2023/07/03 17:44:19;;;;;;;2.50;1.60;;;30.60;63.80;;;;;;10057127;28;20025;-66
2023/07/03 17:49:10;;;;;;;3.67;2.63;;;30.30;64.00;;;;;;10061903;28;20033;-65
2023/07/03 17:54:01;;;;;;;4.57;2.15;;;28.80;65.70;;;;;;10054892;28;20029;-67
2023/07/03 17:58:51;;;;;;;2.20;1.40;;;26.90;67.90;;;;;;10052604;28;20049;-65
2023/07/03 18:03:42;;;;;;;2.13;1.00;;;26.00;68.60;;;;;;10058646;28;20040;-65
2023/07/03 18:08:33;;;;;;;4.20;1.40;;;25.40;68.90;;;;;;10060059;28;20044;-66
2023/07/03 18:13:23;;;;;;;2.40;1.33;;;25.00;69.20;;;;;;10073280;28;20040;-68
2023/07/03 18:18:14;;;;;;;5.63;1.88;;;24.60;69.70;;;;;;10065620;28;20132;-64
2023/07/03 18:23:05;;;;;;;6.15;1.90;;;24.40;70.10;;;;;;10064379;28;20604;-69
2023/07/03 18:27:55;;;;;;;3.28;1.83;;;24.40;70.20;;;;;;10057582;28;20116;-62
2023/07/03 18:32:46;;;;;;;2.75;1.85;;;24.20;70.90;;;;;;10068957;28;20505;-63
2023/07/03 18:37:36;;;;;;;3.28;1.88;;;24.00;71.50;;;;;;10060468;28;20622;-68
2023/07/03 18:42:27;;;;;;;2.60;1.45;;;24.00;71.80;;;;;;10069774;28;20135;-63
2023/07/03 18:47:18;;;;;;;4.95;1.67;;;23.90;72.50;;;;;;10055687;28;20033;-65
2023/07/03 18:52:09;;;;;;;5.60;1.48;;;23.80;73.20;;;;;;10028152;28;20060;-62
2023/07/03 18:57:00;;;;;;;2.63;1.67;;;23.60;73.70;;;;;;10059019;28;20049;-66
2023/07/03 19:01:50;;;;;;;4.18;1.73;;;23.50;74.50;;;;;;10058066;28;20033;-63
2023/07/03 19:06:41;;;;;;;2.70;1.35;;;23.30;75.50;;;;;;10081481;28;20112;-61
2023/07/03 19:11:32;;;;;;;6.22;1.85;;;23.20;76.10;;;;;;10070371;28;20027;-65
2023/07/03 19:16:22;;;;;;;3.17;1.48;;;23.20;76.50;;;;;;10062143;28;20434;-63
2023/07/03 19:21:13;;;;;;;3.13;1.35;;;23.10;76.90;;;;;;10062472;28;20578;-60
2023/07/03 19:26:05;;;;;;;4.35;1.60;;;23.10;77.40;;;;;;10028182;28;20025;-64
2023/07/03 19:30:58;;;;;;;2.00;1.30;;;22.90;78.00;;;;;;10067981;28;20081;-66
2023/07/03 19:35:48;;;;;;;3.42;1.38;;;23.00;78.30;;;;;;10056264;28;20142;-63
2023/07/03 19:40:41;;;;;;;4.28;1.35;;;22.90;78.70;;;;;;10076295;28;20101;-66
2023/07/03 19:45:33;;;;;;;3.53;1.77;;;22.90;79.10;;;;;;10067164;28;20021;-64
2023/07/03 19:50:24;;;;;;;2.72;1.50;;;22.80;79.40;;;;;;10066215;28;20519;-61
2023/07/03 19:55:14;;;;;;;1.95;1.38;;;22.70;79.90;;;;;;10059629;28;20034;-62
2023/07/03 20:00:06;;;;;;;2.47;1.50;;;22.70;80.30;;;;;;10053088;28;20037;-64
2023/07/03 20:04:56;;;;;;;3.78;1.70;;;22.70;80.20;;;;;;10077357;28;20068;-63
2023/07/03 20:09:47;;;;;;;2.35;1.33;;;22.80;80.10;;;;;;10074684;28;20029;-61
2023/07/03 20:14:38;;;;;;;2.00;1.08;;;22.80;80.30;;;;;;10052223;28;20034;-61
2023/07/03 20:19:29;;;;;;;2.83;1.15;;;22.80;80.40;;;;;;10061827;28;20033;-64
2023/07/03 20:24:20;;;;;;;2.25;1.40;;;22.80;80.50;;;;;;10058855;28;20040;-64
2023/07/03 20:29:10;;;;;;;2.15;1.02;;;22.60;81.00;;;;;;10064237;28;20222;-64
2023/07/03 20:34:01;;;;;;;2.83;1.33;;;22.70;81.30;;;;;;10060137;28;20211;-66
2023/07/03 20:38:53;;;;;;;1.42;1.00;;;22.60;81.80;;;;;;10064090;28;20029;-64
2023/07/03 20:43:44;;;;;;;2.38;1.40;;;22.40;82.50;;;;;;10057164;28;20617;-63
2023/07/03 20:48:37;;;;;;;1.77;0.95;;;22.40;82.80;;;;;;10067340;28;20156;-64
2023/07/03 20:53:40;;;;;;;2.78;1.30;;;22.50;83.00;;;;;;10059465;28;20252;-65
2023/07/03 20:58:31;;;;;;;4.22;1.50;;;22.50;83.30;;;;;;10043034;28;20045;-64
2023/07/03 21:03:22;;;;;;;1.65;1.35;;;22.50;83.50;;;;;;10057100;28;20025;-65
2023/07/03 21:08:12;;;;;;;3.97;1.48;;;22.40;84.00;;;;;;10052865;28;20037;-65
2023/07/03 21:13:03;;;;;;;5.18;1.55;;;22.30;84.40;;;;;;10066871;28;20029;-66
2023/07/03 21:17:58;;;;;;;3.60;1.30;;;22.20;85.00;;;;;;10063898;28;20034;-67
2023/07/03 21:22:48;;;;;;;3.00;1.30;;;22.20;85.40;;;;;;10043574;28;20033;-65
2023/07/03 21:27:42;;;;;;;3.50;1.88;;;22.20;85.60;;;;;;10049823;28;20087;-67
2023/07/03 21:32:33;;;;;;;2.83;1.38;;;22.20;85.90;;;;;;10072774;28;20061;-68
2023/07/03 21:37:24;;;;;;;1.80;1.10;;;22.10;86.20;;;;;;10086892;28;20044;-69
2023/07/03 21:42:15;;;;;;;2.33;1.23;;;22.20;86.50;;;;;;10081211;28;20380;-69
2023/07/03 21:47:06;;;;;;;1.90;1.23;;;22.00;87.20;;;;;;10077838;28;20513;-66
2023/07/03 21:51:56;;;;;;;1.30;0.82;;;21.90;87.80;;;;;;10066589;28;20041;-67
2023/07/03 21:56:47;;;;;;;2.58;1.00;;;22.00;88.00;;;;;;10057735;28;20087;-66
2023/07/03 22:01:39;;;;;;;1.35;0.82;;;21.90;88.50;;;;;;10055900;28;20157;-69
2023/07/03 22:06:30;;;;;;;1.65;1.10;;;21.80;89.10;;;;;;10045139;28;20029;-68
2023/07/03 22:11:21;;;;;;;2.22;1.00;;;21.80;89.30;;;;;;10071298;28;20021;-67
2023/07/03 22:16:16;;;;;;;2.10;1.02;;;21.70;89.70;;;;;;10068203;28;20045;-68
2023/07/03 22:21:07;;;;;;;2.17;1.15;;;21.80;90.00;;;;;;10064836;28;20021;-68
2023/07/03 22:25:59;;;;;;;2.10;0.88;;;21.70;90.30;;;;;;10057238;28;20373;-68
2023/07/03 22:30:50;;;;;;;1.52;0.90;;;21.70;90.50;;;;;;10070995;28;20055;-68
2023/07/03 22:35:40;;;;;;;2.17;1.10;;;21.70;90.70;;;;;;10069504;28;20036;-70
2023/07/03 22:40:32;;;;;;;1.00;0.77;;;21.70;90.90;;;;;;10065182;28;20029;-68
2023/07/03 22:45:23;;;;;;;2.53;1.20;;;21.60;91.10;;;;;;10075345;28;20091;-69
2023/07/03 22:50:14;;;;;;;1.30;0.70;;;21.80;91.20;;;;;;10069809;28;20030;-67
2023/07/03 22:55:06;;;;;;;1.85;1.00;;;21.80;91.30;;;;;;10057841;28;20403;-69
2023/07/03 22:59:56;;;;;;;2.38;1.25;;;21.80;91.60;;;;;;10052969;28;20033;-68
2023/07/03 23:04:47;;;;;;;2.78;0.95;;;21.90;91.70;;;;;;10080731;28;20354;-66
2023/07/03 23:09:38;;;;;;;3.08;1.42;;;21.90;91.80;;;;;;10079892;28;20394;-67
2023/07/03 23:14:29;;;;;;;2.88;1.08;;;21.80;92.00;;;;;;10065531;28;20120;-68
2023/07/03 23:19:22;;;;;;;2.88;1.10;;;21.80;92.20;;;;;;10067704;28;20665;-70
2023/07/03 23:24:13;;;;;;;1.25;0.93;;;21.70;92.30;;;;;;10068318;28;20037;-70
2023/07/03 23:29:03;;;;;;;1.63;1.13;;;21.70;92.50;;;;;;10066825;28;20033;-67
2023/07/03 23:33:54;;;;;;;1.25;0.90;;;21.70;92.80;;;;;;10081419;28;20103;-69
2023/07/03 23:38:44;;;;;;;1.55;0.98;;;21.60;93.00;;;;;;10081803;28;20037;-70
2023/07/03 23:43:36;;;;;;;1.27;1.00;;;21.60;93.10;;;;;;10081054;28;20067;-68
2023/07/03 23:48:27;;;;;;;1.85;0.90;;;21.70;93.20;;;;;;10074125;28;20075;-69
2023/07/03 23:53:20;;;;;;;1.45;0.90;;;21.60;93.50;;;;;;10073381;28;20087;-69
2023/07/03 23:58:10;;;;;;;2.17;1.20;;;21.50;93.70;;;;;;10054934;28;20516;-69
